KBRO/BRO METAR and TAF weather

Enter ICAO airport designator
Station Type Date Time Source
KBRO METAR 2022/06/27 07:53 UTC NOAA

KBRO 270753Z AUTO 00000KT 10SM CLR 26/24 A3005 RMK AO2 SLP173 T02560239


Station Type Date Time Source
KBRO Decoded METAR 2022/06/27 07:53 UTC NOAA

BROWNSVILLE/SOUTH PADRE IS, TX, United States (KBRO) 25-54N 97-25W 5M
Jun 27, 2022 - 03:53 AM EDT / 2022.06.27 0753 UTC
Wind: Calm:0
Visibility: 10 mile(s):0
Sky conditions: clear
Temperature: 78.1 F (25.6 C)
Dew Point: 75.0 F (23.9 C)
Relative Humidity: 90%
Pressure (altimeter): 30.05 in. Hg (1017 hPa)
ob: KBRO 270753Z AUTO 00000KT 10SM CLR 26/24 A3005 RMK AO2 SLP173 T02560239
cycle: 8

Station Type Date Time Source
KBRO TAF 2022/06/27 06:24 UTC NOAA

TAF KBRO 270521Z 2706/2806 VRB04KT P6SM SKC
FM271700 09009G16KT P6SM SCT040
FM280000 11007KT P6SM FEW250

Example: see airport list